EDT,Max TemperatureF,Mean TemperatureF,Min TemperatureF,Max Dew PointF,MeanDew PointF,Min DewpointF,Max Humidity, Mean Humidity, Min Humidity, Max Sea Level PressureIn, Mean Sea Level PressureIn, Min Sea Level PressureIn, Max VisibilityMiles, Mean VisibilityMiles, Min VisibilityMiles, Max Wind SpeedMPH, Mean Wind SpeedMPH, Max Gust SpeedMPH,PrecipitationIn, CloudCover, Events, WindDirDegrees
2013-7-1,71,60,48,54,45,37,93,63,32,30.20,30.14,30.05,10,10,10,15,6,21,0.00,0,,36
2013-7-2,73,60,46,51,47,42,93,63,33,30.17,30.15,30.11,10,10,10,13,4,17,T,0,Rain,36
2013-7-3,76,61,46,61,54,46,96,70,44,30.15,30.11,30.06,10,9,7,14,5,18,0.00,0,,112
2013-7-4,79,68,56,63,60,54,100,77,54,30.09,30.06,30.03,10,8,1,14,5,20,0.00,1,Rain,193
2013-7-5,84,70,56,66,61,56,93,69,45,30.09,30.05,29.99,10,9,2,15,5,20,0.00,2,Rain,156
2013-7-6,91,74,57,66,60,50,93,60,26,30.06,30.02,29.94,10,9,2,13,4,16,0.00,0,,230
2013-7-7,88,74,60,66,62,58,97,69,40,29.99,29.95,29.91,10,9,4,14,4,26,0.00,2,Rain,254
2013-7-8,74,69,64,70,67,62,100,90,79,30.02,29.98,29.95,10,6,2,15,4,20,0.35,6,Rain-Thunderstorm,108
2013-7-9,80,73,66,70,67,66,100,86,71,29.99,29.94,29.78,10,4,0,9,4,14,T,7,Fog-Rain,44
2013-7-10,77,69,60,70,60,52,93,71,49,29.93,29.78,29.67,10,10,10,20,9,28,T,5,,272
2013-7-11,72,61,50,54,52,48,93,69,44,30.12,30.06,29.93,10,9,2,16,6,21,0.00,1,Rain,340
2013-7-12,77,62,46,54,51,46,100,70,39,30.21,30.17,30.12,10,10,10,6,4,6,0.00,0,,127
2013-7-13,83,65,47,62,55,47,96,69,42,30.23,30.21,30.17,10,9,2,17,6,21,0.00,0,Rain,142
2013-7-14,86,69,52,66,61,51,93,71,48,30.28,30.26,30.23,10,10,2,15,5,20,0.00,0,Rain,147
2013-7-15,89,76,62,69,66,62,97,72,47,30.30,30.28,30.26,10,10,8,14,4,16,0.00,1,,156
2013-7-16,94,79,64,75,69,63,93,70,47,30.28,30.24,30.17,10,8,1,12,3,20,T,1,,65
2013-7-17,97,85,72,72,68,61,93,62,30,30.21,30.16,30.10,10,10,9,14,5,23,0.00,1,,278
2013-7-18,85,77,69,74,70,67,97,80,63,30.13,30.01,29.80,10,10,5,20,5,25,0.09,2,Rain-Thunderstorm,129
2013-7-19,90,77,64,73,69,61,84,66,47,29.79,29.69,29.61,10,8,0,25,9,31,0.70,4,Fog-Rain-Thunderstorm,292
2013-7-20,77,66,54,61,53,44,90,64,38,30.00,29.85,29.75,10,10,10,20,8,26,0.00,1,,311
2013-7-21,71,61,50,54,52,48,93,73,53,30.08,30.03,29.99,10,10,10,14,6,17,T,3,,117
2013-7-22,84,72,60,67,62,55,93,71,48,29.99,29.84,29.69,10,10,6,18,9,24,0.08,4,Rain,172
2013-7-23,74,62,50,67,55,46,90,72,53,29.93,29.73,29.61,10,10,7,23,11,31,0.02,6,Rain,300
2013-7-24,73,59,45,50,45,41,93,64,35,30.08,30.03,29.94,10,10,10,15,5,20,0.00,1,,342
2013-7-25,76,60,44,57,51,43,93,70,47,30.11,30.07,30.04,10,10,10,17,7,21,0.00,1,,146
2013-7-26,79,70,60,64,60,56,97,76,54,30.05,29.97,29.88,10,9,4,21,9,30,0.58,6,Rain,189
2013-7-27,73,65,56,63,60,56,100,87,73,29.86,29.80,29.75,10,8,0,18,5,24,1.61,7,Fog-Rain-Thunderstorm,347
2013-7-28,67,61,54,55,52,48,100,78,56,29.91,29.81,29.73,10,10,5,13,5,21,0.06,7,Rain,235
2013-7-29,67,58,48,56,54,50,96,82,68,30.17,30.04,29.91,10,10,10,13,4,20,T,6,,287
2013-7-30,73,62,50,58,54,49,100,79,57,30.23,30.19,30.14,10,10,10,10,3,15,T,1,,239
2013-7-31,77,66,54,62,58,53,100,77,54,30.14,30.02,29.91,10,10,10,16,6,23,0.04,6,Rain-Thunderstorm,213